sensor_id;sensor_type;location;lat;lon;timestamp;P1;durP1;ratioP1;P2;durP2;ratioP2
16115;SDS011;8162;47.104;15.432;2023-05-27T00:02:59;7.43;;;6.60;;
16115;SDS011;8162;47.104;15.432;2023-05-27T00:06:02;11.07;;;7.00;;
16115;SDS011;8162;47.104;15.432;2023-05-27T00:09:03;7.17;;;6.47;;
16115;SDS011;8162;47.104;15.432;2023-05-27T00:12:04;8.83;;;6.60;;
16115;SDS011;8162;47.104;15.432;2023-05-27T00:15:06;10.63;;;6.80;;
16115;SDS011;8162;47.104;15.432;2023-05-27T00:18:08;9.53;;;7.03;;
16115;SDS011;8162;47.104;15.432;2023-05-27T00:21:09;9.53;;;6.83;;
16115;SDS011;8162;47.104;15.432;2023-05-27T00:24:10;9.10;;;7.20;;
16115;SDS011;8162;47.104;15.432;2023-05-27T00:27:11;10.67;;;7.20;;
16115;SDS011;8162;47.104;15.432;2023-05-27T00:30:12;8.30;;;7.40;;
16115;SDS011;8162;47.104;15.432;2023-05-27T00:33:13;7.13;;;6.43;;
16115;SDS011;8162;47.104;15.432;2023-05-27T00:36:14;9.83;;;7.77;;
16115;SDS011;8162;47.104;15.432;2023-05-27T00:39:15;8.13;;;6.77;;
16115;SDS011;8162;47.104;15.432;2023-05-27T00:42:17;9.77;;;7.67;;
16115;SDS011;8162;47.104;15.432;2023-05-27T00:45:18;9.97;;;7.13;;
16115;SDS011;8162;47.104;15.432;2023-05-27T00:48:19;8.13;;;7.33;;
16115;SDS011;8162;47.104;15.432;2023-05-27T00:51:20;12.13;;;6.93;;
16115;SDS011;8162;47.104;15.432;2023-05-27T00:54:22;11.57;;;7.67;;
16115;SDS011;8162;47.104;15.432;2023-05-27T00:57:23;8.20;;;6.97;;
16115;SDS011;8162;47.104;15.432;2023-05-27T01:00:25;8.03;;;7.23;;
16115;SDS011;8162;47.104;15.432;2023-05-27T01:03:26;10.90;;;8.50;;
16115;SDS011;8162;47.104;15.432;2023-05-27T01:06:35;8.67;;;7.77;;
16115;SDS011;8162;47.104;15.432;2023-05-27T01:12:59;10.93;;;6.43;;
16115;SDS011;8162;47.104;15.432;2023-05-27T01:16:01;11.10;;;7.33;;
16115;SDS011;8162;47.104;15.432;2023-05-27T01:19:03;8.90;;;7.00;;
16115;SDS011;8162;47.104;15.432;2023-05-27T01:22:07;7.67;;;6.87;;
16115;SDS011;8162;47.104;15.432;2023-05-27T01:25:08;9.43;;;6.93;;
16115;SDS011;8162;47.104;15.432;2023-05-27T01:28:10;13.93;;;7.30;;
16115;SDS011;8162;47.104;15.432;2023-05-27T01:37:50;11.90;;;7.77;;
16115;SDS011;8162;47.104;15.432;2023-05-27T01:40:52;8.87;;;7.87;;
16115;SDS011;8162;47.104;15.432;2023-05-27T01:43:54;7.97;;;6.93;;
16115;SDS011;8162;47.104;15.432;2023-05-27T01:46:59;10.60;;;7.97;;
16115;SDS011;8162;47.104;15.432;2023-05-27T01:50:00;8.50;;;7.60;;
16115;SDS011;8162;47.104;15.432;2023-05-27T01:53:02;8.90;;;6.97;;
16115;SDS011;8162;47.104;15.432;2023-05-27T01:56:03;8.70;;;6.90;;
16115;SDS011;8162;47.104;15.432;2023-05-27T01:59:04;11.13;;;7.60;;
16115;SDS011;8162;47.104;15.432;2023-05-27T02:02:06;12.47;;;7.67;;
16115;SDS011;8162;47.104;15.432;2023-05-27T02:05:07;8.03;;;6.87;;
16115;SDS011;8162;47.104;15.432;2023-05-27T02:08:08;10.60;;;7.50;;
16115;SDS011;8162;47.104;15.432;2023-05-27T02:11:09;8.43;;;7.53;;
16115;SDS011;8162;47.104;15.432;2023-05-27T02:14:10;9.97;;;7.40;;
16115;SDS011;8162;47.104;15.432;2023-05-27T02:17:12;8.33;;;6.93;;
16115;SDS011;8162;47.104;15.432;2023-05-27T02:20:14;8.27;;;7.30;;
16115;SDS011;8162;47.104;15.432;2023-05-27T02:23:15;9.13;;;7.77;;
16115;SDS011;8162;47.104;15.432;2023-05-27T02:26:16;8.67;;;7.03;;
16115;SDS011;8162;47.104;15.432;2023-05-27T02:29:18;10.83;;;7.60;;
16115;SDS011;8162;47.104;15.432;2023-05-27T02:32:19;11.00;;;7.27;;
16115;SDS011;8162;47.104;15.432;2023-05-27T02:35:20;11.57;;;7.63;;
16115;SDS011;8162;47.104;15.432;2023-05-27T02:38:22;9.03;;;7.27;;
16115;SDS011;8162;47.104;15.432;2023-05-27T02:41:23;10.43;;;7.40;;
16115;SDS011;8162;47.104;15.432;2023-05-27T02:44:24;9.23;;;7.57;;
16115;SDS011;8162;47.104;15.432;2023-05-27T02:47:25;9.73;;;8.37;;
16115;SDS011;8162;47.104;15.432;2023-05-27T02:50:26;9.33;;;7.57;;
16115;SDS011;8162;47.104;15.432;2023-05-27T02:53:27;10.27;;;6.90;;
16115;SDS011;8162;47.104;15.432;2023-05-27T02:56:28;11.43;;;7.83;;
16115;SDS011;8162;47.104;15.432;2023-05-27T02:59:29;9.17;;;7.47;;
16115;SDS011;8162;47.104;15.432;2023-05-27T03:02:30;10.20;;;7.77;;
16115;SDS011;8162;47.104;15.432;2023-05-27T03:05:31;8.17;;;7.33;;
16115;SDS011;8162;47.104;15.432;2023-05-27T03:08:32;9.00;;;7.27;;
16115;SDS011;8162;47.104;15.432;2023-05-27T03:11:33;9.53;;;7.40;;
16115;SDS011;8162;47.104;15.432;2023-05-27T03:14:34;10.97;;;7.23;;
16115;SDS011;8162;47.104;15.432;2023-05-27T03:17:36;7.70;;;6.90;;
16115;SDS011;8162;47.104;15.432;2023-05-27T03:20:37;8.87;;;6.73;;
16115;SDS011;8162;47.104;15.432;2023-05-27T03:23:38;9.03;;;7.97;;
16115;SDS011;8162;47.104;15.432;2023-05-27T03:26:39;9.97;;;7.53;;
16115;SDS011;8162;47.104;15.432;2023-05-27T03:29:40;10.23;;;7.27;;
16115;SDS011;8162;47.104;15.432;2023-05-27T03:32:41;9.87;;;7.70;;
16115;SDS011;8162;47.104;15.432;2023-05-27T03:35:43;11.67;;;8.23;;
16115;SDS011;8162;47.104;15.432;2023-05-27T03:38:44;11.93;;;8.00;;
16115;SDS011;8162;47.104;15.432;2023-05-27T03:41:45;9.07;;;7.50;;
16115;SDS011;8162;47.104;15.432;2023-05-27T03:44:46;8.87;;;7.80;;
16115;SDS011;8162;47.104;15.432;2023-05-27T03:47:47;10.47;;;7.93;;
16115;SDS011;8162;47.104;15.432;2023-05-27T03:50:48;10.90;;;7.13;;
16115;SDS011;8162;47.104;15.432;2023-05-27T03:53:49;10.03;;;7.87;;
16115;SDS011;8162;47.104;15.432;2023-05-27T03:56:50;9.83;;;8.00;;
16115;SDS011;8162;47.104;15.432;2023-05-27T03:59:51;12.00;;;8.40;;
16115;SDS011;8162;47.104;15.432;2023-05-27T04:02:52;10.47;;;8.27;;
16115;SDS011;8162;47.104;15.432;2023-05-27T04:05:53;8.10;;;7.30;;
16115;SDS011;8162;47.104;15.432;2023-05-27T04:08:56;12.57;;;8.23;;
16115;SDS011;8162;47.104;15.432;2023-05-27T04:11:57;11.90;;;8.20;;
16115;SDS011;8162;47.104;15.432;2023-05-27T04:14:58;8.03;;;7.23;;
16115;SDS011;8162;47.104;15.432;2023-05-27T04:17:59;8.83;;;7.47;;
16115;SDS011;8162;47.104;15.432;2023-05-27T04:21:01;11.43;;;7.93;;
16115;SDS011;8162;47.104;15.432;2023-05-27T04:24:02;8.60;;;7.70;;
16115;SDS011;8162;47.104;15.432;2023-05-27T04:27:03;10.80;;;8.33;;
16115;SDS011;8162;47.104;15.432;2023-05-27T04:30:05;11.00;;;7.80;;
16115;SDS011;8162;47.104;15.432;2023-05-27T04:33:06;8.40;;;7.20;;
16115;SDS011;8162;47.104;15.432;2023-05-27T04:36:08;9.83;;;8.07;;
16115;SDS011;8162;47.104;15.432;2023-05-27T04:39:09;9.77;;;7.87;;
16115;SDS011;8162;47.104;15.432;2023-05-27T04:42:12;9.10;;;7.80;;
16115;SDS011;8162;47.104;15.432;2023-05-27T04:45:15;13.53;;;7.90;;
16115;SDS011;8162;47.104;15.432;2023-05-27T04:48:16;10.07;;;8.23;;
16115;SDS011;8162;47.104;15.432;2023-05-27T04:51:17;8.27;;;7.33;;
16115;SDS011;8162;47.104;15.432;2023-05-27T04:54:18;8.87;;;7.97;;
16115;SDS011;8162;47.104;15.432;2023-05-27T04:57:21;12.07;;;8.53;;
16115;SDS011;8162;47.104;15.432;2023-05-27T05:00:22;9.40;;;7.73;;
16115;SDS011;8162;47.104;15.432;2023-05-27T05:03:35;9.83;;;8.73;;
16115;SDS011;8162;47.104;15.432;2023-05-27T05:06:39;9.40;;;7.83;;
16115;SDS011;8162;47.104;15.432;2023-05-27T05:09:40;9.30;;;8.30;;
16115;SDS011;8162;47.104;15.432;2023-05-27T05:12:41;12.27;;;9.13;;
16115;SDS011;8162;47.104;15.432;2023-05-27T05:15:42;10.93;;;8.37;;
16115;SDS011;8162;47.104;15.432;2023-05-27T05:18:44;10.83;;;8.13;;
16115;SDS011;8162;47.104;15.432;2023-05-27T05:21:45;9.80;;;7.97;;
16115;SDS011;8162;47.104;15.432;2023-05-27T05:24:46;10.17;;;7.87;;
16115;SDS011;8162;47.104;15.432;2023-05-27T05:27:47;11.47;;;8.53;;
16115;SDS011;8162;47.104;15.432;2023-05-27T05:30:48;12.37;;;8.63;;
16115;SDS011;8162;47.104;15.432;2023-05-27T05:33:49;9.50;;;8.03;;
16115;SDS011;8162;47.104;15.432;2023-05-27T05:36:51;12.17;;;8.77;;
16115;SDS011;8162;47.104;15.432;2023-05-27T05:39:53;14.67;;;9.43;;
16115;SDS011;8162;47.104;15.432;2023-05-27T05:42:56;10.97;;;8.80;;
16115;SDS011;8162;47.104;15.432;2023-05-27T05:45:57;10.30;;;8.13;;
16115;SDS011;8162;47.104;15.432;2023-05-27T05:48:59;10.03;;;7.93;;
16115;SDS011;8162;47.104;15.432;2023-05-27T05:52:00;10.33;;;8.07;;
16115;SDS011;8162;47.104;15.432;2023-05-27T05:55:01;10.20;;;8.17;;
16115;SDS011;8162;47.104;15.432;2023-05-27T05:58:03;11.23;;;8.57;;
16115;SDS011;8162;47.104;15.432;2023-05-27T06:01:04;9.37;;;7.97;;
16115;SDS011;8162;47.104;15.432;2023-05-27T06:04:05;10.77;;;7.70;;
16115;SDS011;8162;47.104;15.432;2023-05-27T06:07:07;11.97;;;8.00;;
16115;SDS011;8162;47.104;15.432;2023-05-27T06:10:08;9.60;;;8.60;;
16115;SDS011;8162;47.104;15.432;2023-05-27T06:13:09;10.60;;;8.43;;
16115;SDS011;8162;47.104;15.432;2023-05-27T06:16:11;10.87;;;8.07;;
16115;SDS011;8162;47.104;15.432;2023-05-27T06:19:12;9.93;;;7.83;;
16115;SDS011;8162;47.104;15.432;2023-05-27T06:22:13;11.33;;;8.07;;
16115;SDS011;8162;47.104;15.432;2023-05-27T06:25:15;9.53;;;7.60;;
16115;SDS011;8162;47.104;15.432;2023-05-27T06:28:16;10.33;;;7.93;;
16115;SDS011;8162;47.104;15.432;2023-05-27T06:31:17;11.57;;;8.00;;
16115;SDS011;8162;47.104;15.432;2023-05-27T06:34:18;9.93;;;7.80;;
16115;SDS011;8162;47.104;15.432;2023-05-27T06:37:19;10.00;;;6.83;;
16115;SDS011;8162;47.104;15.432;2023-05-27T06:40:20;9.37;;;7.53;;
16115;SDS011;8162;47.104;15.432;2023-05-27T06:43:21;7.33;;;6.57;;
16115;SDS011;8162;47.104;15.432;2023-05-27T06:46:22;7.67;;;6.63;;
16115;SDS011;8162;47.104;15.432;2023-05-27T06:49:23;8.67;;;6.27;;
16115;SDS011;8162;47.104;15.432;2023-05-27T06:52:24;8.17;;;6.87;;
16115;SDS011;8162;47.104;15.432;2023-05-27T06:55:25;7.83;;;5.97;;
16115;SDS011;8162;47.104;15.432;2023-05-27T06:58:26;9.33;;;6.23;;
16115;SDS011;8162;47.104;15.432;2023-05-27T07:01:27;6.80;;;5.70;;
16115;SDS011;8162;47.104;15.432;2023-05-27T07:04:28;6.83;;;5.90;;
16115;SDS011;8162;47.104;15.432;2023-05-27T07:07:30;6.47;;;5.47;;
16115;SDS011;8162;47.104;15.432;2023-05-27T07:10:31;11.27;;;5.60;;
16115;SDS011;8162;47.104;15.432;2023-05-27T07:13:32;6.50;;;5.83;;
16115;SDS011;8162;47.104;15.432;2023-05-27T07:16:33;6.87;;;6.00;;
16115;SDS011;8162;47.104;15.432;2023-05-27T07:19:34;6.67;;;5.90;;
16115;SDS011;8162;47.104;15.432;2023-05-27T07:22:35;8.23;;;5.50;;
16115;SDS011;8162;47.104;15.432;2023-05-27T07:25:36;8.40;;;5.83;;
16115;SDS011;8162;47.104;15.432;2023-05-27T07:28:37;9.07;;;5.47;;
16115;SDS011;8162;47.104;15.432;2023-05-27T07:31:38;7.23;;;5.70;;
16115;SDS011;8162;47.104;15.432;2023-05-27T07:34:39;8.67;;;5.60;;
16115;SDS011;8162;47.104;15.432;2023-05-27T07:37:40;6.60;;;5.73;;
16115;SDS011;8162;47.104;15.432;2023-05-27T07:40:41;7.47;;;5.30;;
16115;SDS011;8162;47.104;15.432;2023-05-27T07:43:42;6.10;;;4.93;;
16115;SDS011;8162;47.104;15.432;2023-05-27T07:46:43;6.10;;;5.30;;
16115;SDS011;8162;47.104;15.432;2023-05-27T07:49:44;7.80;;;5.33;;
16115;SDS011;8162;47.104;15.432;2023-05-27T07:52:45;9.00;;;5.70;;
16115;SDS011;8162;47.104;15.432;2023-05-27T07:55:46;7.40;;;5.23;;
16115;SDS011;8162;47.104;15.432;2023-05-27T07:58:48;6.47;;;5.30;;
16115;SDS011;8162;47.104;15.432;2023-05-27T08:01:49;7.53;;;4.87;;
16115;SDS011;8162;47.104;15.432;2023-05-27T08:04:50;6.37;;;4.50;;
16115;SDS011;8162;47.104;15.432;2023-05-27T08:07:51;7.90;;;4.80;;
16115;SDS011;8162;47.104;15.432;2023-05-27T08:10:52;9.67;;;5.40;;
16115;SDS011;8162;47.104;15.432;2023-05-27T08:13:53;10.40;;;5.43;;
16115;SDS011;8162;47.104;15.432;2023-05-27T08:16:54;7.10;;;4.77;;
16115;SDS011;8162;47.104;15.432;2023-05-27T08:19:55;8.03;;;5.13;;
16115;SDS011;8162;47.104;15.432;2023-05-27T08:22:56;5.93;;;4.87;;
16115;SDS011;8162;47.104;15.432;2023-05-27T08:25:57;6.13;;;4.80;;
16115;SDS011;8162;47.104;15.432;2023-05-27T08:28:58;7.40;;;4.70;;
16115;SDS011;8162;47.104;15.432;2023-05-27T08:31:59;5.33;;;4.60;;
16115;SDS011;8162;47.104;15.432;2023-05-27T08:35:00;7.10;;;5.07;;
16115;SDS011;8162;47.104;15.432;2023-05-27T08:38:01;7.97;;;5.33;;
16115;SDS011;8162;47.104;15.432;2023-05-27T08:41:02;5.53;;;4.87;;
16115;SDS011;8162;47.104;15.432;2023-05-27T08:44:03;5.17;;;4.27;;
16115;SDS011;8162;47.104;15.432;2023-05-27T08:47:05;6.93;;;4.93;;
16115;SDS011;8162;47.104;15.432;2023-05-27T08:50:06;6.90;;;4.77;;
16115;SDS011;8162;47.104;15.432;2023-05-27T08:53:08;7.37;;;5.53;;
16115;SDS011;8162;47.104;15.432;2023-05-27T08:56:09;6.67;;;3.97;;
16115;SDS011;8162;47.104;15.432;2023-05-27T08:59:13;6.07;;;4.37;;
16115;SDS011;8162;47.104;15.432;2023-05-27T09:02:14;6.27;;;4.20;;
16115;SDS011;8162;47.104;15.432;2023-05-27T09:05:15;6.17;;;4.10;;
16115;SDS011;8162;47.104;15.432;2023-05-27T09:08:17;4.30;;;3.90;;
16115;SDS011;8162;47.104;15.432;2023-05-27T09:11:22;8.77;;;4.87;;
16115;SDS011;8162;47.104;15.432;2023-05-27T09:14:23;8.30;;;4.30;;
16115;SDS011;8162;47.104;15.432;2023-05-27T09:17:24;6.80;;;4.40;;
16115;SDS011;8162;47.104;15.432;2023-05-27T09:20:26;7.53;;;4.90;;
16115;SDS011;8162;47.104;15.432;2023-05-27T09:23:27;5.93;;;4.43;;
16115;SDS011;8162;47.104;15.432;2023-05-27T09:26:28;6.53;;;4.97;;
16115;SDS011;8162;47.104;15.432;2023-05-27T09:29:29;7.13;;;4.03;;
16115;SDS011;8162;47.104;15.432;2023-05-27T09:32:32;6.53;;;4.43;;
16115;SDS011;8162;47.104;15.432;2023-05-27T09:35:37;7.20;;;4.40;;
16115;SDS011;8162;47.104;15.432;2023-05-27T09:38:40;6.70;;;4.10;;
16115;SDS011;8162;47.104;15.432;2023-05-27T09:41:41;6.00;;;4.00;;
16115;SDS011;8162;47.104;15.432;2023-05-27T09:44:43;6.27;;;3.53;;
16115;SDS011;8162;47.104;15.432;2023-05-27T09:47:49;4.90;;;4.07;;
16115;SDS011;8162;47.104;15.432;2023-05-27T09:50:50;5.07;;;3.90;;
16115;SDS011;8162;47.104;15.432;2023-05-27T09:53:53;5.87;;;3.83;;
16115;SDS011;8162;47.104;15.432;2023-05-27T09:56:57;5.47;;;4.17;;
16115;SDS011;8162;47.104;15.432;2023-05-27T09:59:59;7.90;;;3.67;;
16115;SDS011;8162;47.104;15.432;2023-05-27T10:03:01;3.47;;;3.13;;
16115;SDS011;8162;47.104;15.432;2023-05-27T10:06:03;7.90;;;3.70;;
16115;SDS011;8162;47.104;15.432;2023-05-27T10:09:05;6.63;;;3.50;;
16115;SDS011;8162;47.104;15.432;2023-05-27T10:12:06;4.50;;;3.83;;
16115;SDS011;8162;47.104;15.432;2023-05-27T10:15:08;6.90;;;4.27;;
16115;SDS011;8162;47.104;15.432;2023-05-27T10:18:09;6.80;;;3.63;;
16115;SDS011;8162;47.104;15.432;2023-05-27T10:21:10;5.37;;;4.20;;
16115;SDS011;8162;47.104;15.432;2023-05-27T10:24:18;4.83;;;3.93;;
16115;SDS011;8162;47.104;15.432;2023-05-27T10:27:21;7.40;;;4.27;;
16115;SDS011;8162;47.104;15.432;2023-05-27T10:30:22;7.57;;;4.00;;
16115;SDS011;8162;47.104;15.432;2023-05-27T10:33:29;5.57;;;3.77;;
16115;SDS011;8162;47.104;15.432;2023-05-27T10:36:31;6.00;;;3.60;;
16115;SDS011;8162;47.104;15.432;2023-05-27T10:39:32;6.10;;;4.07;;
16115;SDS011;8162;47.104;15.432;2023-05-27T10:42:33;5.57;;;4.00;;
16115;SDS011;8162;47.104;15.432;2023-05-27T10:45:34;7.17;;;4.40;;
16115;SDS011;8162;47.104;15.432;2023-05-27T10:48:36;8.00;;;4.27;;
16115;SDS011;8162;47.104;15.432;2023-05-27T10:51:39;5.47;;;4.20;;
16115;SDS011;8162;47.104;15.432;2023-05-27T10:54:44;8.67;;;4.37;;
16115;SDS011;8162;47.104;15.432;2023-05-27T10:57:46;5.13;;;4.27;;
16115;SDS011;8162;47.104;15.432;2023-05-27T11:00:48;6.33;;;4.13;;
16115;SDS011;8162;47.104;15.432;2023-05-27T11:03:49;7.17;;;4.00;;
16115;SDS011;8162;47.104;15.432;2023-05-27T11:06:58;6.17;;;3.80;;
16115;SDS011;8162;47.104;15.432;2023-05-27T11:10:00;6.17;;;4.27;;
16115;SDS011;8162;47.104;15.432;2023-05-27T11:13:01;6.73;;;4.47;;
16115;SDS011;8162;47.104;15.432;2023-05-27T11:16:02;7.43;;;4.10;;
16115;SDS011;8162;47.104;15.432;2023-05-27T11:19:04;8.37;;;4.20;;
16115;SDS011;8162;47.104;15.432;2023-05-27T11:22:05;7.77;;;4.47;;
16115;SDS011;8162;47.104;15.432;2023-05-27T11:25:06;4.73;;;4.13;;
16115;SDS011;8162;47.104;15.432;2023-05-27T11:28:18;7.03;;;4.33;;
16115;SDS011;8162;47.104;15.432;2023-05-27T11:31:20;7.03;;;4.33;;
16115;SDS011;8162;47.104;15.432;2023-05-27T11:34:21;6.93;;;4.07;;
16115;SDS011;8162;47.104;15.432;2023-05-27T11:37:22;7.13;;;4.60;;
16115;SDS011;8162;47.104;15.432;2023-05-27T11:40:23;6.67;;;4.53;;
16115;SDS011;8162;47.104;15.432;2023-05-27T11:43:24;6.67;;;4.40;;
16115;SDS011;8162;47.104;15.432;2023-05-27T11:49:35;6.27;;;4.57;;
16115;SDS011;8162;47.104;15.432;2023-05-27T11:52:49;4.87;;;3.80;;
16115;SDS011;8162;47.104;15.432;2023-05-27T11:55:50;9.10;;;4.37;;
16115;SDS011;8162;47.104;15.432;2023-05-27T11:58:51;8.13;;;4.23;;
16115;SDS011;8162;47.104;15.432;2023-05-27T12:01:53;6.50;;;4.13;;
16115;SDS011;8162;47.104;15.432;2023-05-27T12:04:54;5.43;;;4.20;;
16115;SDS011;8162;47.104;15.432;2023-05-27T12:07:55;6.93;;;4.50;;
16115;SDS011;8162;47.104;15.432;2023-05-27T12:10:56;6.37;;;4.53;;
16115;SDS011;8162;47.104;15.432;2023-05-27T12:13:57;5.47;;;4.10;;
16115;SDS011;8162;47.104;15.432;2023-05-27T12:16:58;6.07;;;4.07;;
16115;SDS011;8162;47.104;15.432;2023-05-27T12:19:59;5.57;;;3.80;;
16115;SDS011;8162;47.104;15.432;2023-05-27T12:23:00;9.25;;;3.85;;
16115;SDS011;8162;47.104;15.432;2023-05-27T12:26:01;4.80;;;4.05;;
16115;SDS011;8162;47.104;15.432;2023-05-27T12:29:03;5.18;;;3.80;;
16115;SDS011;8162;47.104;15.432;2023-05-27T12:32:04;6.53;;;3.92;;
16115;SDS011;8162;47.104;15.432;2023-05-27T12:35:05;5.40;;;4.18;;
16115;SDS011;8162;47.104;15.432;2023-05-27T12:38:06;6.63;;;4.20;;
16115;SDS011;8162;47.104;15.432;2023-05-27T12:41:07;4.57;;;3.80;;
16115;SDS011;8162;47.104;15.432;2023-05-27T12:44:09;4.82;;;3.67;;
16115;SDS011;8162;47.104;15.432;2023-05-27T12:47:10;4.55;;;4.05;;
16115;SDS011;8162;47.104;15.432;2023-05-27T12:50:11;3.83;;;3.47;;
16115;SDS011;8162;47.104;15.432;2023-05-27T12:53:12;4.45;;;4.05;;
16115;SDS011;8162;47.104;15.432;2023-05-27T12:56:13;8.45;;;4.30;;
16115;SDS011;8162;47.104;15.432;2023-05-27T12:59:14;4.63;;;4.05;;
16115;SDS011;8162;47.104;15.432;2023-05-27T13:02:15;4.57;;;3.40;;
16115;SDS011;8162;47.104;15.432;2023-05-27T13:05:16;5.40;;;3.88;;
16115;SDS011;8162;47.104;15.432;2023-05-27T13:08:17;4.93;;;3.97;;
16115;SDS011;8162;47.104;15.432;2023-05-27T13:11:18;5.45;;;4.00;;
16115;SDS011;8162;47.104;15.432;2023-05-27T13:14:21;4.95;;;3.90;;
16115;SDS011;8162;47.104;15.432;2023-05-27T13:17:22;6.47;;;4.07;;
16115;SDS011;8162;47.104;15.432;2023-05-27T13:20:23;4.45;;;3.63;;
16115;SDS011;8162;47.104;15.432;2023-05-27T13:23:24;5.63;;;4.15;;
16115;SDS011;8162;47.104;15.432;2023-05-27T13:26:28;5.43;;;3.90;;
16115;SDS011;8162;47.104;15.432;2023-05-27T13:29:30;6.63;;;4.00;;
16115;SDS011;8162;47.104;15.432;2023-05-27T13:32:31;7.45;;;4.15;;
16115;SDS011;8162;47.104;15.432;2023-05-27T13:35:32;6.47;;;4.18;;
16115;SDS011;8162;47.104;15.432;2023-05-27T13:38:34;4.55;;;3.63;;
16115;SDS011;8162;47.104;15.432;2023-05-27T13:41:35;5.00;;;3.72;;
16115;SDS011;8162;47.104;15.432;2023-05-27T13:44:36;4.40;;;4.00;;
16115;SDS011;8162;47.104;15.432;2023-05-27T13:47:37;4.57;;;3.65;;
16115;SDS011;8162;47.104;15.432;2023-05-27T13:50:40;4.53;;;4.13;;
16115;SDS011;8162;47.104;15.432;2023-05-27T13:53:41;7.43;;;3.63;;
16115;SDS011;8162;47.104;15.432;2023-05-27T13:56:43;5.88;;;4.28;;
16115;SDS011;8162;47.104;15.432;2023-05-27T13:59:44;4.40;;;4.00;;
16115;SDS011;8162;47.104;15.432;2023-05-27T14:02:45;4.63;;;4.15;;
16115;SDS011;8162;47.104;15.432;2023-05-27T14:05:46;5.18;;;4.05;;
16115;SDS011;8162;47.104;15.432;2023-05-27T14:08:47;5.18;;;4.20;;
16115;SDS011;8162;47.104;15.432;2023-05-27T14:11:48;4.50;;;3.92;;
16115;SDS011;8162;47.104;15.432;2023-05-27T14:14:49;7.15;;;3.83;;
16115;SDS011;8162;47.104;15.432;2023-05-27T14:17:50;6.40;;;4.07;;
16115;SDS011;8162;47.104;15.432;2023-05-27T14:20:51;5.43;;;4.25;;
16115;SDS011;8162;47.104;15.432;2023-05-27T14:23:53;6.43;;;4.80;;
16115;SDS011;8162;47.104;15.432;2023-05-27T14:26:56;8.20;;;5.10;;
16115;SDS011;8162;47.104;15.432;2023-05-27T14:29:58;5.87;;;4.80;;
16115;SDS011;8162;47.104;15.432;2023-05-27T14:32:59;6.60;;;4.67;;
16115;SDS011;8162;47.104;15.432;2023-05-27T14:36:01;6.30;;;4.33;;
16115;SDS011;8162;47.104;15.432;2023-05-27T14:39:03;6.67;;;4.77;;
16115;SDS011;8162;47.104;15.432;2023-05-27T14:42:06;6.63;;;4.20;;
16115;SDS011;8162;47.104;15.432;2023-05-27T14:45:07;6.87;;;4.63;;
16115;SDS011;8162;47.104;15.432;2023-05-27T14:48:08;5.87;;;4.50;;
16115;SDS011;8162;47.104;15.432;2023-05-27T14:51:09;5.20;;;4.60;;
16115;SDS011;8162;47.104;15.432;2023-05-27T14:54:12;5.33;;;4.43;;
16115;SDS011;8162;47.104;15.432;2023-05-27T14:57:13;5.87;;;4.70;;
16115;SDS011;8162;47.104;15.432;2023-05-27T15:00:14;7.57;;;4.83;;
16115;SDS011;8162;47.104;15.432;2023-05-27T15:03:15;6.13;;;4.70;;
16115;SDS011;8162;47.104;15.432;2023-05-27T15:06:16;8.67;;;4.70;;
16115;SDS011;8162;47.104;15.432;2023-05-27T15:09:17;7.93;;;4.70;;
16115;SDS011;8162;47.104;15.432;2023-05-27T15:12:19;5.93;;;4.60;;
16115;SDS011;8162;47.104;15.432;2023-05-27T15:15:20;8.27;;;5.20;;
16115;SDS011;8162;47.104;15.432;2023-05-27T15:18:21;7.83;;;5.13;;
16115;SDS011;8162;47.104;15.432;2023-05-27T15:21:22;6.67;;;5.00;;
16115;SDS011;8162;47.104;15.432;2023-05-27T15:24:23;4.97;;;4.37;;
16115;SDS011;8162;47.104;15.432;2023-05-27T15:27:24;4.97;;;4.47;;
16115;SDS011;8162;47.104;15.432;2023-05-27T15:30:25;7.23;;;4.67;;
16115;SDS011;8162;47.104;15.432;2023-05-27T15:33:26;6.27;;;4.70;;
16115;SDS011;8162;47.104;15.432;2023-05-27T15:36:27;5.93;;;4.70;;
16115;SDS011;8162;47.104;15.432;2023-05-27T15:39:29;6.00;;;4.87;;
16115;SDS011;8162;47.104;15.432;2023-05-27T15:42:30;7.50;;;4.90;;
16115;SDS011;8162;47.104;15.432;2023-05-27T15:45:31;6.30;;;4.60;;
16115;SDS011;8162;47.104;15.432;2023-05-27T15:48:32;6.77;;;4.47;;
16115;SDS011;8162;47.104;15.432;2023-05-27T15:51:33;9.80;;;6.17;;
16115;SDS011;8162;47.104;15.432;2023-05-27T15:54:35;10.43;;;9.43;;
16115;SDS011;8162;47.104;15.432;2023-05-27T15:57:36;44.47;;;41.23;;
16115;SDS011;8162;47.104;15.432;2023-05-27T16:00:37;9.27;;;8.33;;
16115;SDS011;8162;47.104;15.432;2023-05-27T16:03:38;6.37;;;4.80;;
16115;SDS011;8162;47.104;15.432;2023-05-27T16:06:40;6.00;;;5.00;;
16115;SDS011;8162;47.104;15.432;2023-05-27T16:09:41;12.67;;;5.10;;
16115;SDS011;8162;47.104;15.432;2023-05-27T16:12:42;8.07;;;5.30;;
16115;SDS011;8162;47.104;15.432;2023-05-27T16:15:43;12.63;;;11.37;;
16115;SDS011;8162;47.104;15.432;2023-05-27T16:18:44;10.80;;;6.97;;
16115;SDS011;8162;47.104;15.432;2023-05-27T16:21:45;57.13;;;51.83;;
16115;SDS011;8162;47.104;15.432;2023-05-27T16:24:48;46.20;;;41.17;;
16115;SDS011;8162;47.104;15.432;2023-05-27T16:27:49;158.33;;;141.90;;
16115;SDS011;8162;47.104;15.432;2023-05-27T16:30:50;115.87;;;102.30;;
16115;SDS011;8162;47.104;15.432;2023-05-27T16:33:51;13.40;;;11.97;;
16115;SDS011;8162;47.104;15.432;2023-05-27T16:36:52;9.10;;;7.87;;
16115;SDS011;8162;47.104;15.432;2023-05-27T16:39:53;5.13;;;4.43;;
16115;SDS011;8162;47.104;15.432;2023-05-27T16:42:54;6.03;;;4.40;;
16115;SDS011;8162;47.104;15.432;2023-05-27T16:45:56;6.23;;;4.30;;
16115;SDS011;8162;47.104;15.432;2023-05-27T16:48:57;6.30;;;4.50;;
16115;SDS011;8162;47.104;15.432;2023-05-27T16:51:58;9.10;;;4.87;;
16115;SDS011;8162;47.104;15.432;2023-05-27T16:54:59;7.13;;;4.37;;
16115;SDS011;8162;47.104;15.432;2023-05-27T16:58:00;9.63;;;4.70;;
16115;SDS011;8162;47.104;15.432;2023-05-27T17:01:01;6.93;;;4.67;;
16115;SDS011;8162;47.104;15.432;2023-05-27T17:04:02;7.60;;;5.13;;
16115;SDS011;8162;47.104;15.432;2023-05-27T17:07:03;6.80;;;4.67;;
16115;SDS011;8162;47.104;15.432;2023-05-27T17:10:07;10.53;;;4.77;;
16115;SDS011;8162;47.104;15.432;2023-05-27T17:13:08;4.73;;;4.17;;
16115;SDS011;8162;47.104;15.432;2023-05-27T17:16:11;7.10;;;4.23;;
16115;SDS011;8162;47.104;15.432;2023-05-27T17:19:12;8.83;;;5.07;;
16115;SDS011;8162;47.104;15.432;2023-05-27T17:22:13;5.50;;;4.10;;
16115;SDS011;8162;47.104;15.432;2023-05-27T17:25:14;5.97;;;4.03;;
16115;SDS011;8162;47.104;15.432;2023-05-27T17:28:15;9.30;;;4.70;;
16115;SDS011;8162;47.104;15.432;2023-05-27T17:31:16;7.70;;;4.53;;
16115;SDS011;8162;47.104;15.432;2023-05-27T17:34:17;6.07;;;4.57;;
16115;SDS011;8162;47.104;15.432;2023-05-27T17:37:19;5.50;;;3.80;;
16115;SDS011;8162;47.104;15.432;2023-05-27T17:40:20;7.10;;;3.87;;
16115;SDS011;8162;47.104;15.432;2023-05-27T17:43:21;5.93;;;4.07;;
16115;SDS011;8162;47.104;15.432;2023-05-27T17:46:22;8.20;;;4.90;;
16115;SDS011;8162;47.104;15.432;2023-05-27T17:49:23;5.47;;;3.90;;
16115;SDS011;8162;47.104;15.432;2023-05-27T17:52:24;8.60;;;4.07;;
16115;SDS011;8162;47.104;15.432;2023-05-27T17:55:25;8.87;;;4.33;;
16115;SDS011;8162;47.104;15.432;2023-05-27T17:58:26;8.33;;;4.07;;
16115;SDS011;8162;47.104;15.432;2023-05-27T18:01:28;6.80;;;3.80;;
16115;SDS011;8162;47.104;15.432;2023-05-27T18:04:29;9.43;;;4.07;;
16115;SDS011;8162;47.104;15.432;2023-05-27T18:07:30;8.10;;;4.03;;
16115;SDS011;8162;47.104;15.432;2023-05-27T18:10:31;7.37;;;3.57;;
16115;SDS011;8162;47.104;15.432;2023-05-27T18:13:32;4.60;;;3.90;;
16115;SDS011;8162;47.104;15.432;2023-05-27T18:16:33;8.90;;;4.20;;
16115;SDS011;8162;47.104;15.432;2023-05-27T18:19:34;9.73;;;3.87;;
16115;SDS011;8162;47.104;15.432;2023-05-27T18:22:36;7.53;;;4.40;;
16115;SDS011;8162;47.104;15.432;2023-05-27T18:25:37;7.77;;;4.43;;